Climatempo

Climatempo Meteorologia

Obter
publicidade

Painel Meteorológico - destaques de 01/05/2015

01/05/2015 às 22:32
por Josélia Pegorim

Recordes de frio As capitais São Paulo, Rio de Janeiro, Brasília e Goiânia registraram as temperatura mais baixas de 2015 até agora.Leia mais Menor temperatura no Brasil em 2015 A região serrana de Santa Catarina registrou em 1 de maio a menor temperatura no Brasil este ano, até o momento. Confira as menores temperaturas do dia no país. Saiba mais   São Paulo - Rio de Janeiro As duas capitais tiveram bastante sol depois da madrugada mais fria do ano. Não houve registro de chuva. O Inmet registrou em São Paulo mínima de 13,4°C e máxima de 22,0°C. O Campo de Marte também registrou 22°C. No Rio de Janeiro, o Inmet registrou mínima de 14,9°C (Alto da Boa Vista) e máxima de 25,6°C (Saúde). O aeroporto Jacarepaguá registrou 28°C. Nordeste quente O Norte e o Nordeste permanecem com altas temperaturas. As mais elevadas foram novamente observadas em Alagoas. Nuvem estranha Nuvem com padrão de Kelvin-Helmholtz foi observada em Londrina, no norte do Paraná. Sistema Cantareira Nível de armazenamento do Cantareira ficou estável em 19,9%. No dia 28 de abril de 2015 ocorreu a primeira queda depois de 85 dias consecutivos de estabilidade ou elevação do nível de água armazenada. Nuvens ameaçadoras Fortes áreas de instabilidade avançam do mar em direção ao Nordeste. A previsão é de que chove forte já no fim de semana em várias capitais litorâneas da Região. Leia mais . Alerta

 

Calbuco continua soltando cinzas vulcânicas O vulcão Calbuco, no sul do Chile, voltou a ter outra erupção no dia 30 de abril de 2015. Embora não tão violenta como as duas primeiras entre os dias 22 e 23 de abril, as cinzas vulcânicas continuam sendo espalhadas para Argentina e atingem a região turística de Bariloche e também Neuquén.   Metar de Neuquén SAZN 020000Z 29004KT 0900 SCT045 BKN100 13/11 Q1009 SAZN 012300Z 23208KT 8000 -RA SCT045 BKN060 13/09 Q1009 SAZN 012200Z 23011KT 3500 -RA BLDU VA SCT045 BKN060 14/08 Q1008 SAZN 012100Z 20010KT 4000 BLDU VA SCT090 BKN200 17/06 Q1008 SAZN 012000Z 20013KT 3500 BLDU VA SCT100 BKN200 19/04 Q1007 SAZN 011900Z 23012KT 3000 BLDU VA FEW100 BKN200 20/04 Q1006 Metar de Bariloche SAZS 020000Z 29015KT 8000 DRVA BKN025 06/00 Q1010 (DR é vento calmo ) SAZS 012300Z 32016KT 8000 DRVA BKN025 07/01 Q1010 SAZS 012200Z 32010KT 8000 VCSH FEW020 SCT025 07/M01 Q1009 SAZS 012100Z 27020KT 8000 VCSH SCT025 FEW030 SCT060 08/M01 Q1008 SAZS 012000Z 29021KT 9000 VCSH SCT030 FEW035 10/01 Q1008 SAZS 011900Z 32015KT 9000 VCSH SCT030 SCT035 10/02 Q1007